createdAt,value
2022-08-26T00:02:13.144Z,22.87
2022-08-26T00:04:45.067Z,22.79
2022-08-26T00:07:14.953Z,22.80
2022-08-26T00:09:47.491Z,22.74
2022-08-26T00:12:16.930Z,22.70
2022-08-26T00:14:47.202Z,22.68
2022-08-26T00:17:16.599Z,22.66
2022-08-26T00:19:45.882Z,22.59
2022-08-26T00:22:20.280Z,22.56
2022-08-26T00:24:51.113Z,22.47
2022-08-26T00:27:20.473Z,22.45
2022-08-26T00:29:50.251Z,22.48
2022-08-26T00:32:20.199Z,22.44
2022-08-26T00:34:49.512Z,22.46
2022-08-26T00:37:18.967Z,22.46
2022-08-26T00:39:48.723Z,22.43
2022-08-26T00:42:18.562Z,22.42
2022-08-26T00:44:47.894Z,22.41
2022-08-26T00:47:26.843Z,22.36
2022-08-26T00:50:02.751Z,22.33
2022-08-26T00:52:32.755Z,22.31
2022-08-26T00:55:34.493Z,22.26
2022-08-26T00:58:09.719Z,22.20
2022-08-26T01:00:39.259Z,22.25
2022-08-26T01:03:12.683Z,22.21
2022-08-26T01:05:43.943Z,22.23
2022-08-26T01:08:13.433Z,22.22
2022-08-26T01:10:43.405Z,22.26
2022-08-26T01:13:14.343Z,22.24
2022-08-26T01:15:50.494Z,22.30
2022-08-26T01:18:20.817Z,22.28
2022-08-26T01:20:58.631Z,22.28
2022-08-26T01:23:33.671Z,22.32
2022-08-26T01:26:15.343Z,22.33
2022-08-26T01:28:51.810Z,22.36
2022-08-26T01:31:23.845Z,22.40
2022-08-26T01:34:04.420Z,22.40
2022-08-26T01:36:34.155Z,22.44
2022-08-26T01:39:05.828Z,22.47
2022-08-26T01:41:38.725Z,22.42
2022-08-26T01:44:10.812Z,22.42
2022-08-26T01:46:40.848Z,22.40
2022-08-26T01:49:13.308Z,22.42
2022-08-26T01:51:44.557Z,22.49
2022-08-26T01:54:15.338Z,22.44
2022-08-26T01:56:44.803Z,22.57
2022-08-26T01:59:17.937Z,22.58
2022-08-26T02:01:50.897Z,22.60
2022-08-26T02:04:31.055Z,22.59
2022-08-26T02:07:00.996Z,22.55
2022-08-26T02:09:31.044Z,22.52
2022-08-26T02:12:03.628Z,22.49
2022-08-26T02:14:43.831Z,22.52
2022-08-26T02:17:14.114Z,22.49
2022-08-26T02:19:48.028Z,22.47
2022-08-26T02:22:21.769Z,22.43
2022-08-26T02:25:02.375Z,22.42
2022-08-26T02:27:35.124Z,22.43
2022-08-26T02:30:10.995Z,22.40
2022-08-26T02:32:41.260Z,22.42
2022-08-26T02:35:12.960Z,22.43
2022-08-26T02:37:42.785Z,22.38
2022-08-26T02:40:15.225Z,22.39
2022-08-26T02:42:45.215Z,22.42
2022-08-26T02:45:23.040Z,22.45
2022-08-26T02:47:54.239Z,22.46
2022-08-26T02:50:27.041Z,22.39
2022-08-26T02:52:56.491Z,22.39
2022-08-26T02:55:25.926Z,22.34
2022-08-26T02:57:55.892Z,22.28
2022-08-26T03:00:25.472Z,22.33
2022-08-26T03:02:55.023Z,22.27
2022-08-26T03:05:24.923Z,22.29
2022-08-26T03:07:55.188Z,22.24
2022-08-26T03:10:24.900Z,22.18
2022-08-26T03:12:55.584Z,22.16
2022-08-26T03:15:25.711Z,22.18
2022-08-26T03:17:55.054Z,22.17
2022-08-26T03:20:26.790Z,22.21
2022-08-26T03:22:56.967Z,22.23
2022-08-26T03:25:27.305Z,22.19
2022-08-26T03:27:56.627Z,22.21
2022-08-26T03:30:44.216Z,22.26
2022-08-26T03:33:16.329Z,22.28
2022-08-26T03:35:47.933Z,22.28
2022-08-26T03:38:21.409Z,22.21
2022-08-26T03:40:51.107Z,22.21
2022-08-26T03:43:24.715Z,22.22
2022-08-26T03:45:54.786Z,22.17
2022-08-26T03:48:24.096Z,22.26
2022-08-26T03:50:54.177Z,22.22
2022-08-26T03:53:23.863Z,22.17
2022-08-26T03:55:53.264Z,22.16
2022-08-26T03:58:24.298Z,22.20
2022-08-26T04:00:55.633Z,22.17
2022-08-26T04:03:38.423Z,22.20
2022-08-26T04:06:08.154Z,22.18
2022-08-26T04:08:39.548Z,22.15
2022-08-26T04:11:10.604Z,22.20
2022-08-26T04:13:40.071Z,22.15
2022-08-26T04:16:12.514Z,22.20
2022-08-26T04:18:46.445Z,22.11
2022-08-26T04:21:16.800Z,22.11
2022-08-26T04:23:47.496Z,22.21
2022-08-26T04:26:17.535Z,22.20
2022-08-26T04:28:46.892Z,22.25
2022-08-26T04:31:19.642Z,22.21
2022-08-26T04:33:51.428Z,22.21
2022-08-26T04:36:21.315Z,22.24
2022-08-26T04:38:50.846Z,22.28
2022-08-26T04:41:22.270Z,22.25
2022-08-26T04:43:51.643Z,22.25
2022-08-26T04:46:25.595Z,22.24
2022-08-26T04:48:56.877Z,22.29
2022-08-26T04:51:28.037Z,22.29
2022-08-26T04:53:59.179Z,22.30
2022-08-26T04:56:35.022Z,22.34
2022-08-26T04:59:06.232Z,22.40
2022-08-26T05:01:39.625Z,22.45
2022-08-26T05:04:09.202Z,22.48
2022-08-26T05:06:38.623Z,22.49
2022-08-26T05:09:09.233Z,22.55
2022-08-26T05:11:38.856Z,22.57
2022-08-26T05:14:08.723Z,22.57
2022-08-26T05:16:40.343Z,22.57
2022-08-26T05:19:13.943Z,22.56
2022-08-26T05:21:48.446Z,22.52
2022-08-26T05:24:18.448Z,22.49
2022-08-26T05:26:48.387Z,22.52
2022-08-26T05:29:18.623Z,22.53
2022-08-26T05:31:49.332Z,22.60
2022-08-26T05:34:20.810Z,22.63
2022-08-26T05:36:50.828Z,22.61
2022-08-26T05:39:21.472Z,22.63
2022-08-26T05:41:50.813Z,22.64
2022-08-26T05:44:22.437Z,22.57
2022-08-26T05:46:51.935Z,22.58
2022-08-26T05:49:22.482Z,22.65
2022-08-26T05:51:55.649Z,22.69
2022-08-26T05:54:25.091Z,22.69
2022-08-26T05:56:54.782Z,22.73
2022-08-26T05:59:24.863Z,22.72
2022-08-26T06:01:55.067Z,22.71
2022-08-26T06:04:29.209Z,22.75
2022-08-26T06:06:58.894Z,22.75
2022-08-26T06:09:28.422Z,22.73
2022-08-26T06:12:01.881Z,22.68
2022-08-26T06:14:31.542Z,22.71
2022-08-26T06:17:00.957Z,22.79
2022-08-26T06:19:32.718Z,22.79
2022-08-26T06:22:23.452Z,22.77
2022-08-26T06:25:05.956Z,22.81
2022-08-26T06:27:37.437Z,22.78
2022-08-26T06:30:12.394Z,22.93
2022-08-26T06:32:41.814Z,22.88
2022-08-26T06:35:13.294Z,22.93
2022-08-26T06:37:43.996Z,22.94
2022-08-26T06:40:13.961Z,22.95
2022-08-26T06:42:43.551Z,22.98
2022-08-26T06:45:13.904Z,22.99
2022-08-26T06:47:43.263Z,23.01
2022-08-26T06:50:12.752Z,23.04
2022-08-26T06:52:44.564Z,23.02
2022-08-26T06:55:13.940Z,23.08
2022-08-26T06:57:43.278Z,23.04
2022-08-26T07:00:13.495Z,23.07
2022-08-26T07:02:46.222Z,23.02
2022-08-26T07:05:16.685Z,23.09
2022-08-26T07:07:46.006Z,23.05
2022-08-26T07:10:15.670Z,23.04
2022-08-26T07:12:47.110Z,23.01
2022-08-26T07:15:16.694Z,23.04
2022-08-26T07:17:46.205Z,23.08
2022-08-26T07:20:15.631Z,23.18
2022-08-26T07:22:46.000Z,23.25
2022-08-26T07:25:15.369Z,23.27
2022-08-26T07:27:45.179Z,23.32
2022-08-26T07:30:15.124Z,23.40
2022-08-26T07:32:45.440Z,23.32
2022-08-26T07:35:14.944Z,23.40
2022-08-26T07:37:45.503Z,23.45
2022-08-26T07:40:14.932Z,23.46
2022-08-26T07:42:45.804Z,23.48
2022-08-26T07:45:15.192Z,23.52
2022-08-26T07:47:44.868Z,23.49
2022-08-26T07:50:14.443Z,23.52
2022-08-26T07:52:44.795Z,23.44
2022-08-26T07:55:14.862Z,23.51
2022-08-26T07:57:44.946Z,23.48
2022-08-26T08:00:18.659Z,23.48
2022-08-26T08:02:49.353Z,23.50
2022-08-26T08:05:21.583Z,23.56
2022-08-26T08:07:53.493Z,23.52
2022-08-26T08:10:30.330Z,23.52
2022-08-26T08:13:01.514Z,23.52
2022-08-26T08:15:33.586Z,23.47
2022-08-26T08:18:06.544Z,23.56
2022-08-26T08:21:04.595Z,23.52
2022-08-26T08:23:35.651Z,23.59
2022-08-26T08:26:08.330Z,23.65
2022-08-26T08:28:38.448Z,23.74
2022-08-26T08:31:08.702Z,23.94
2022-08-26T08:33:38.184Z,23.89
2022-08-26T08:36:09.290Z,23.83
2022-08-26T08:38:40.216Z,23.81
2022-08-26T08:41:48.046Z,23.78
2022-08-26T08:47:22.285Z,23.71
2022-08-26T08:49:51.700Z,23.77
2022-08-26T08:52:40.609Z,23.74
2022-08-26T08:55:13.670Z,23.74
2022-08-26T08:58:02.265Z,23.81
2022-08-26T09:00:42.260Z,23.87
2022-08-26T09:03:43.101Z,23.86
2022-08-26T09:06:17.444Z,23.76
2022-08-26T09:08:50.770Z,23.77
2022-08-26T09:11:21.432Z,23.69
2022-08-26T09:13:56.127Z,23.62
2022-08-26T09:17:03.231Z,23.57
2022-08-26T09:19:50.486Z,23.61
2022-08-26T09:22:38.623Z,23.69
2022-08-26T09:25:12.189Z,23.75
2022-08-26T09:27:47.480Z,23.93
2022-08-26T09:30:36.573Z,23.99
2022-08-26T09:33:10.214Z,23.97
2022-08-26T09:35:43.922Z,24.07
2022-08-26T09:38:29.027Z,24.08
2022-08-26T09:41:00.672Z,24.18
2022-08-26T09:43:31.153Z,24.29
2022-08-26T09:46:22.592Z,24.48
2022-08-26T09:48:53.214Z,24.53
2022-08-26T09:51:24.716Z,24.49
2022-08-26T09:53:57.835Z,24.62
2022-08-26T09:56:40.055Z,24.70
2022-08-26T09:59:12.736Z,24.66
2022-08-26T10:01:46.324Z,24.60
2022-08-26T10:04:30.651Z,24.61
2022-08-26T10:07:07.603Z,24.62
2022-08-26T10:09:44.566Z,24.61
2022-08-26T10:12:19.317Z,24.62
2022-08-26T10:14:53.263Z,24.55
2022-08-26T10:17:34.392Z,24.44
2022-08-26T10:20:22.467Z,24.52
2022-08-26T10:23:02.475Z,24.54
2022-08-26T10:25:37.533Z,24.51
2022-08-26T10:28:52.233Z,24.39
2022-08-26T10:31:28.356Z,24.35
2022-08-26T10:34:00.782Z,24.29
2022-08-26T10:37:13.937Z,24.21
2022-08-26T10:39:47.942Z,24.13
2022-08-26T10:42:48.159Z,24.19
2022-08-26T10:45:25.408Z,24.19
2022-08-26T10:47:58.172Z,24.10
2022-08-26T10:50:33.456Z,24.15
2022-08-26T10:53:19.296Z,24.23
2022-08-26T10:56:18.529Z,24.31
2022-08-26T10:58:59.558Z,24.26
2022-08-26T11:01:54.671Z,24.26
2022-08-26T11:04:48.325Z,24.35
2022-08-26T11:07:39.188Z,24.41
2022-08-26T11:10:36.275Z,24.26
2022-08-26T11:13:07.898Z,24.23
2022-08-26T11:15:44.135Z,24.17
2022-08-26T11:18:35.318Z,24.17
2022-08-26T11:21:04.961Z,24.13
2022-08-26T11:23:50.558Z,24.10
2022-08-26T11:26:35.831Z,24.21
2022-08-26T11:29:13.864Z,24.17
2022-08-26T11:31:43.306Z,24.15
2022-08-26T11:34:16.920Z,24.04
2022-08-26T11:36:49.356Z,24.07
2022-08-26T11:39:31.773Z,24.31
2022-08-26T11:42:41.023Z,24.44
2022-08-26T11:45:28.531Z,24.31
2022-08-26T11:47:58.929Z,24.06
2022-08-26T11:50:30.979Z,23.92
2022-08-26T11:53:07.577Z,23.89
2022-08-26T11:55:45.058Z,23.91
2022-08-26T11:58:18.430Z,23.85
2022-08-26T12:01:11.533Z,23.75
2022-08-26T12:03:51.143Z,23.68
2022-08-26T12:06:38.870Z,23.72
2022-08-26T12:09:23.751Z,23.79
2022-08-26T12:11:55.621Z,23.86
2022-08-26T12:14:29.265Z,23.88
2022-08-26T12:17:12.534Z,23.88
2022-08-26T12:19:42.539Z,23.70
2022-08-26T12:22:31.290Z,23.81
2022-08-26T12:25:04.536Z,23.98
2022-08-26T12:27:44.090Z,24.04
2022-08-26T12:30:22.802Z,24.09
2022-08-26T12:33:22.089Z,24.14
2022-08-26T12:35:56.388Z,24.17
2022-08-26T12:38:28.301Z,24.23
2022-08-26T12:40:58.443Z,24.21
2022-08-26T12:43:47.380Z,24.29
2022-08-26T12:46:32.507Z,24.26
2022-08-26T12:49:03.435Z,24.08
2022-08-26T12:51:41.962Z,23.96
2022-08-26T12:54:18.953Z,24.00
2022-08-26T12:56:48.393Z,24.00
2022-08-26T12:59:26.773Z,24.05
2022-08-26T13:01:57.037Z,24.00
2022-08-26T13:04:46.216Z,23.88
2022-08-26T13:07:21.464Z,23.91
2022-08-26T13:09:53.140Z,23.95
2022-08-26T13:12:37.403Z,23.94
2022-08-26T13:15:08.179Z,23.91
2022-08-26T13:17:37.800Z,23.96
2022-08-26T13:20:07.690Z,23.88
2022-08-26T13:22:37.610Z,23.88
2022-08-26T13:25:07.460Z,23.84
2022-08-26T13:27:37.017Z,23.82
2022-08-26T13:30:08.537Z,23.84
2022-08-26T13:32:38.642Z,23.84
2022-08-26T13:35:13.881Z,23.84
2022-08-26T13:37:43.254Z,23.67
2022-08-26T13:40:13.354Z,23.70
2022-08-26T13:42:49.490Z,23.74
2022-08-26T13:45:19.652Z,23.76
2022-08-26T13:47:49.155Z,23.78
2022-08-26T13:50:18.806Z,23.77
2022-08-26T13:52:48.255Z,23.68
2022-08-26T13:55:17.703Z,23.68
2022-08-26T13:57:47.117Z,23.62
2022-08-26T14:00:17.276Z,23.53
2022-08-26T14:02:46.601Z,23.44
2022-08-26T14:05:16.250Z,23.33
2022-08-26T14:07:46.022Z,23.25
2022-08-26T14:10:15.458Z,23.08
2022-08-26T14:12:45.756Z,23.11
2022-08-26T14:15:16.369Z,23.07
2022-08-26T14:17:46.687Z,23.10
2022-08-26T14:20:21.246Z,23.02
2022-08-26T14:23:12.725Z,22.89
2022-08-26T14:25:43.343Z,22.86
2022-08-26T14:28:12.740Z,22.85
2022-08-26T14:30:44.879Z,22.78
2022-08-26T14:33:17.712Z,22.81
2022-08-26T14:35:48.803Z,22.83
2022-08-26T14:38:19.223Z,22.78
2022-08-26T14:40:48.691Z,22.80
2022-08-26T14:43:18.521Z,22.82
2022-08-26T14:45:47.893Z,22.83
2022-08-26T14:48:17.326Z,22.94
2022-08-26T14:50:47.004Z,22.97
2022-08-26T14:53:30.049Z,23.02
2022-08-26T14:55:59.559Z,23.11
2022-08-26T14:58:33.827Z,23.24
2022-08-26T15:01:04.588Z,23.29
2022-08-26T15:03:33.956Z,23.30
2022-08-26T15:06:03.507Z,23.33
2022-08-26T15:08:36.550Z,23.33
2022-08-26T15:11:06.879Z,23.33
2022-08-26T15:13:36.256Z,23.37
2022-08-26T15:16:06.020Z,23.47
2022-08-26T15:18:35.582Z,23.44
2022-08-26T15:21:07.274Z,23.44
2022-08-26T15:23:38.442Z,23.42
2022-08-26T15:26:11.029Z,23.42
2022-08-26T15:28:43.779Z,23.43
2022-08-26T15:31:13.194Z,23.54
2022-08-26T15:33:42.720Z,23.54
2022-08-26T15:36:12.588Z,23.71
2022-08-26T15:38:46.810Z,23.73
2022-08-26T15:41:16.360Z,23.78
2022-08-26T15:43:45.829Z,23.82
2022-08-26T15:46:16.143Z,23.77
2022-08-26T15:48:45.667Z,23.75
2022-08-26T15:51:29.404Z,23.75
2022-08-26T15:53:59.562Z,23.81
2022-08-26T15:56:31.273Z,23.77
2022-08-26T15:59:01.404Z,23.66
2022-08-26T16:01:31.563Z,23.68
2022-08-26T16:04:01.622Z,23.61
2022-08-26T16:06:35.060Z,23.71
2022-08-26T16:09:04.623Z,23.75
2022-08-26T16:11:35.978Z,23.85
2022-08-26T16:14:07.405Z,23.89
2022-08-26T16:16:41.987Z,23.88
2022-08-26T16:19:11.965Z,23.87
2022-08-26T16:21:42.627Z,23.75
2022-08-26T16:24:12.714Z,23.70
2022-08-26T16:26:44.013Z,23.68
2022-08-26T16:29:18.231Z,23.70
2022-08-26T16:31:47.708Z,23.63
2022-08-26T16:34:17.417Z,23.52
2022-08-26T16:36:46.720Z,23.44
2022-08-26T16:39:16.157Z,23.31
2022-08-26T16:41:45.528Z,23.29
2022-08-26T16:44:14.895Z,23.21
2022-08-26T16:46:46.682Z,23.05
2022-08-26T16:49:16.208Z,23.05
2022-08-26T16:51:45.551Z,23.12
2022-08-26T16:54:15.308Z,23.13
2022-08-26T16:56:44.784Z,23.11
2022-08-26T16:59:14.301Z,23.24
2022-08-26T17:01:43.800Z,23.20
2022-08-26T17:04:13.122Z,23.22
2022-08-26T17:06:42.474Z,23.21
2022-08-26T17:09:11.880Z,23.31
2022-08-26T17:11:41.687Z,23.32
2022-08-26T17:14:14.153Z,23.37
2022-08-26T17:16:43.526Z,23.38
2022-08-26T17:19:12.931Z,23.30
2022-08-26T17:21:42.518Z,23.27
2022-08-26T17:24:11.906Z,23.33
2022-08-26T17:26:44.333Z,23.31
2022-08-26T17:29:22.942Z,23.25
2022-08-26T17:31:52.311Z,23.25
2022-08-26T17:34:22.340Z,23.26
2022-08-26T17:36:52.533Z,23.28
2022-08-26T17:39:21.889Z,23.19
2022-08-26T17:41:51.629Z,23.08
2022-08-26T17:44:20.947Z,23.06
2022-08-26T17:46:50.356Z,23.00
2022-08-26T17:49:19.731Z,23.11
2022-08-26T17:51:49.101Z,23.08
2022-08-26T17:54:18.565Z,23.02
2022-08-26T17:56:47.892Z,22.97
2022-08-26T17:59:17.452Z,22.90
2022-08-26T18:01:47.565Z,22.92
2022-08-26T18:04:17.621Z,22.97
2022-08-26T18:06:47.061Z,22.87
2022-08-26T18:09:16.416Z,22.82
2022-08-26T18:11:45.871Z,22.89
2022-08-26T18:14:15.232Z,22.87
2022-08-26T18:16:44.675Z,22.84
2022-08-26T18:19:16.904Z,22.79
2022-08-26T18:21:46.840Z,22.76
2022-08-26T18:24:16.204Z,22.76
2022-08-26T18:26:49.543Z,22.67
2022-08-26T18:29:20.607Z,22.63
2022-08-26T18:31:51.229Z,22.63
2022-08-26T18:34:21.125Z,22.60
2022-08-26T18:36:51.131Z,22.62
2022-08-26T18:39:23.610Z,22.62
2022-08-26T18:41:55.109Z,22.62
2022-08-26T18:44:25.493Z,22.57
2022-08-26T18:46:55.018Z,22.57
2022-08-26T18:49:24.664Z,22.54
2022-08-26T18:51:54.658Z,22.46
2022-08-26T18:54:24.151Z,22.40
2022-08-26T18:56:53.516Z,22.35
2022-08-26T18:59:28.389Z,22.33
2022-08-26T19:01:59.847Z,22.27
2022-08-26T19:04:29.713Z,22.26
2022-08-26T19:06:59.059Z,22.19
2022-08-26T19:09:28.946Z,22.21
2022-08-26T19:11:58.277Z,22.10
2022-08-26T19:14:27.836Z,22.09
2022-08-26T19:16:57.334Z,22.06
2022-08-26T19:19:26.886Z,22.04
2022-08-26T19:21:56.669Z,21.99
2022-08-26T19:24:28.163Z,22.03
2022-08-26T19:27:00.684Z,21.98
2022-08-26T19:29:32.263Z,21.96
2022-08-26T19:32:02.172Z,21.92
2022-08-26T19:34:31.797Z,21.94
2022-08-26T19:37:01.384Z,21.93
2022-08-26T19:39:30.683Z,21.89
2022-08-26T19:42:00.444Z,21.88
2022-08-26T19:44:42.257Z,21.75
2022-08-26T19:47:15.569Z,21.82
2022-08-26T19:49:45.766Z,21.78
2022-08-26T19:52:15.165Z,21.78
2022-08-26T19:54:44.577Z,21.73
2022-08-26T19:57:14.560Z,21.65
2022-08-26T19:59:46.268Z,21.63
2022-08-26T20:02:16.283Z,21.57
2022-08-26T20:04:45.836Z,21.59
2022-08-26T20:07:18.945Z,21.54
2022-08-26T20:09:49.178Z,21.52
2022-08-26T20:12:18.957Z,21.52
2022-08-26T20:14:48.966Z,21.49
2022-08-26T20:17:18.755Z,21.48
2022-08-26T20:20:00.799Z,21.41
2022-08-26T20:22:30.425Z,21.46
2022-08-26T20:24:59.774Z,21.42
2022-08-26T20:27:34.725Z,21.45
2022-08-26T20:30:09.738Z,21.33
2022-08-26T20:32:40.031Z,21.33
2022-08-26T20:35:11.932Z,21.40
2022-08-26T20:37:42.609Z,21.38
2022-08-26T20:40:14.430Z,21.37
2022-08-26T20:42:43.848Z,21.30
2022-08-26T20:45:13.870Z,21.29
2022-08-26T20:47:43.915Z,21.29
2022-08-26T20:50:13.342Z,21.21
2022-08-26T20:52:42.687Z,21.12
2022-08-26T20:55:12.263Z,21.16
2022-08-26T20:57:43.395Z,21.17
2022-08-26T21:00:16.300Z,21.10
2022-08-26T21:02:46.999Z,21.10
2022-08-26T21:05:16.405Z,21.09
2022-08-26T21:07:45.779Z,21.03
2022-08-26T21:10:15.372Z,21.05
2022-08-26T21:12:45.357Z,21.00
2022-08-26T21:15:16.392Z,20.96
2022-08-26T21:17:46.074Z,20.92
2022-08-26T21:20:15.411Z,20.98
2022-08-26T21:22:44.825Z,20.92
2022-08-26T21:25:14.273Z,20.92
2022-08-26T21:27:43.639Z,20.93
2022-08-26T21:30:13.541Z,20.86
2022-08-26T21:32:42.932Z,20.83
2022-08-26T21:35:12.704Z,20.85
2022-08-26T21:37:42.123Z,20.79
2022-08-26T21:40:12.275Z,20.78
2022-08-26T21:42:41.735Z,20.71
2022-08-26T21:45:13.377Z,20.77
2022-08-26T21:47:42.880Z,20.73
2022-08-26T21:50:13.612Z,20.70
2022-08-26T21:52:42.933Z,20.76
2022-08-26T21:55:12.756Z,20.76
2022-08-26T21:57:42.144Z,20.73
2022-08-26T22:00:14.091Z,20.74
2022-08-26T22:02:43.636Z,20.77
2022-08-26T22:05:13.097Z,20.64
2022-08-26T22:07:42.487Z,20.71
2022-08-26T22:10:11.925Z,20.72
2022-08-26T22:12:44.951Z,20.64
2022-08-26T22:15:15.831Z,20.64
2022-08-26T22:17:45.620Z,20.64
2022-08-26T22:20:16.518Z,20.64
2022-08-26T22:22:46.242Z,20.57
2022-08-26T22:25:16.767Z,20.57
2022-08-26T22:27:46.204Z,20.53
2022-08-26T22:30:15.850Z,20.53
2022-08-26T22:32:45.885Z,20.53
2022-08-26T22:35:29.135Z,20.47
2022-08-26T22:37:59.476Z,20.40
2022-08-26T22:40:29.732Z,20.40
2022-08-26T22:43:00.318Z,20.39
2022-08-26T22:45:31.350Z,20.36
2022-08-26T22:48:05.057Z,20.42
2022-08-26T22:50:36.808Z,20.35
2022-08-26T22:53:06.195Z,20.35
2022-08-26T22:55:35.687Z,20.37
2022-08-26T22:58:05.088Z,20.37
2022-08-26T23:00:35.211Z,20.43
2022-08-26T23:03:05.803Z,20.38
2022-08-26T23:05:35.731Z,20.36
2022-08-26T23:08:05.356Z,20.37
2022-08-26T23:10:37.845Z,20.33
2022-08-26T23:13:08.527Z,20.28
2022-08-26T23:15:38.507Z,20.26
2022-08-26T23:18:08.096Z,20.26
2022-08-26T23:20:40.957Z,20.26
2022-08-26T23:23:10.891Z,20.37
2022-08-26T23:25:41.596Z,20.28
2022-08-26T23:28:12.503Z,20.28
2022-08-26T23:30:41.905Z,20.29
2022-08-26T23:33:11.180Z,20.33
2022-08-26T23:35:38.553Z,20.24
2022-08-26T23:38:11.777Z,20.26
2022-08-26T23:40:44.883Z,20.20
2022-08-26T23:43:16.588Z,20.20
2022-08-26T23:45:46.035Z,20.22
2022-08-26T23:48:15.357Z,20.19
2022-08-26T23:51:01.255Z,20.27
2022-08-26T23:53:30.603Z,20.21
2022-08-26T23:55:59.900Z,20.20
2022-08-26T23:58:29.594Z,20.17
